createdAt,value
2018-08-04T00:01:01.970Z,25.82
2018-08-04T00:03:30.378Z,25.79
2018-08-04T00:05:58.757Z,25.76
2018-08-04T00:08:27.131Z,25.72
2018-08-04T00:10:55.529Z,25.71
2018-08-04T00:13:23.928Z,25.67
2018-08-04T00:15:52.327Z,25.64
2018-08-04T00:18:20.740Z,25.61
2018-08-04T00:20:49.139Z,25.57
2018-08-04T00:23:17.477Z,25.54
2018-08-04T00:25:45.818Z,25.56
2018-08-04T00:28:14.183Z,25.57
2018-08-04T00:30:42.552Z,25.57
2018-08-04T00:33:11.161Z,25.56
2018-08-04T00:35:39.513Z,25.50
2018-08-04T00:38:07.859Z,25.42
2018-08-04T00:40:36.302Z,25.42
2018-08-04T00:43:04.648Z,25.40
2018-08-04T00:45:32.984Z,25.36
2018-08-04T00:48:01.382Z,25.33
2018-08-04T00:50:29.822Z,25.30
2018-08-04T00:52:58.141Z,25.27
2018-08-04T00:55:26.648Z,25.25
2018-08-04T00:57:54.976Z,25.20
2018-08-04T01:00:23.345Z,25.17
2018-08-04T01:02:51.691Z,25.08
2018-08-04T01:05:20.088Z,25.01
2018-08-04T01:07:48.404Z,24.94
2018-08-04T01:10:16.769Z,24.88
2018-08-04T01:12:45.100Z,24.85
2018-08-04T01:15:13.469Z,24.82
2018-08-04T01:17:41.791Z,24.80
2018-08-04T01:20:10.224Z,24.84
2018-08-04T01:22:38.554Z,24.78
2018-08-04T01:25:07.855Z,24.71
2018-08-04T01:27:36.221Z,24.70
2018-08-04T01:30:05.891Z,24.68
2018-08-04T01:32:34.201Z,24.65
2018-08-04T01:35:02.539Z,24.61
2018-08-04T01:37:30.877Z,24.57
2018-08-04T01:39:59.259Z,24.55
2018-08-04T01:42:27.624Z,24.48
2018-08-04T01:44:56.003Z,24.43
2018-08-04T01:47:24.327Z,24.38
2018-08-04T01:49:52.658Z,24.37
2018-08-04T01:52:20.991Z,24.33
2018-08-04T01:54:49.297Z,24.30
2018-08-04T01:57:17.646Z,24.26
2018-08-04T01:59:46.019Z,24.19
2018-08-04T02:02:14.387Z,24.15
2018-08-04T02:04:42.742Z,24.10
2018-08-04T02:07:11.125Z,24.08
2018-08-04T02:09:39.443Z,24.05
2018-08-04T02:12:07.772Z,24.01
2018-08-04T02:14:36.089Z,23.98
2018-08-04T02:17:04.435Z,23.95
2018-08-04T02:19:32.797Z,23.91
2018-08-04T02:22:01.288Z,23.86
2018-08-04T02:24:29.610Z,23.81
2018-08-04T02:26:57.951Z,23.78
2018-08-04T02:29:26.339Z,23.74
2018-08-04T02:31:54.698Z,23.68
2018-08-04T02:34:23.029Z,23.68
2018-08-04T02:36:51.333Z,23.67
2018-08-04T02:39:19.720Z,23.65
2018-08-04T02:41:48.033Z,23.67
2018-08-04T02:44:16.380Z,23.62
2018-08-04T02:46:44.686Z,23.60
2018-08-04T02:49:13.043Z,23.60
2018-08-04T02:51:41.359Z,23.60
2018-08-04T02:54:09.748Z,23.54
2018-08-04T02:56:38.084Z,23.51
2018-08-04T02:59:06.489Z,23.50
2018-08-04T03:01:34.777Z,23.47
2018-08-04T03:04:03.387Z,23.46
2018-08-04T03:06:31.866Z,23.44
2018-08-04T03:09:00.258Z,23.44
2018-08-04T03:11:28.584Z,23.45
2018-08-04T03:13:56.926Z,23.45
2018-08-04T03:16:25.269Z,23.40
2018-08-04T03:18:53.602Z,23.32
2018-08-04T03:21:22.081Z,23.26
2018-08-04T03:23:50.407Z,23.21
2018-08-04T03:26:18.726Z,23.16
2018-08-04T03:28:47.067Z,23.14
2018-08-04T03:31:15.414Z,23.08
2018-08-04T03:33:43.777Z,23.04
2018-08-04T03:36:12.113Z,22.97
2018-08-04T03:38:40.413Z,22.92
2018-08-04T03:41:08.877Z,22.91
2018-08-04T03:43:37.194Z,22.91
2018-08-04T03:46:11.916Z,22.91
2018-08-04T03:48:40.247Z,22.83
2018-08-04T03:51:08.606Z,22.79
2018-08-04T03:53:36.914Z,22.77
2018-08-04T03:56:05.248Z,22.78
2018-08-04T03:58:33.584Z,22.74
2018-08-04T04:01:01.989Z,22.70
2018-08-04T04:03:30.363Z,22.68
2018-08-04T04:05:58.665Z,22.67
2018-08-04T04:08:27.025Z,22.73
2018-08-04T04:10:55.366Z,22.80
2018-08-04T04:13:23.710Z,22.89
2018-08-04T04:15:52.077Z,22.94
2018-08-04T04:18:20.399Z,23.02
2018-08-04T04:20:48.822Z,23.05
2018-08-04T04:23:17.133Z,23.07
2018-08-04T04:25:45.501Z,23.07
2018-08-04T04:28:13.823Z,23.05
2018-08-04T04:30:42.164Z,23.10
2018-08-04T04:33:10.540Z,23.30
2018-08-04T04:35:38.878Z,23.54
2018-08-04T04:38:07.248Z,23.88
2018-08-04T04:40:35.639Z,24.01
2018-08-04T04:43:03.988Z,23.92
2018-08-04T04:45:32.360Z,23.87
2018-08-04T04:48:00.679Z,23.77
2018-08-04T04:50:29.041Z,23.64
2018-08-04T04:52:57.379Z,23.48
2018-08-04T04:55:25.735Z,23.37
2018-08-04T04:57:54.194Z,23.28
2018-08-04T05:00:22.903Z,23.24
2018-08-04T05:02:51.226Z,23.28
2018-08-04T05:05:19.624Z,23.33
2018-08-04T05:07:47.968Z,23.38
2018-08-04T05:10:16.551Z,23.45
2018-08-04T05:12:44.904Z,23.48
2018-08-04T05:15:13.250Z,23.49
2018-08-04T05:17:41.624Z,23.43
2018-08-04T05:20:09.985Z,23.51
2018-08-04T05:22:38.345Z,23.61
2018-08-04T05:25:06.917Z,23.67
2018-08-04T05:27:35.312Z,23.62
2018-08-04T05:30:03.787Z,23.60
2018-08-04T05:32:32.133Z,23.55
2018-08-04T05:35:00.458Z,23.49
2018-08-04T05:37:28.911Z,23.50
2018-08-04T05:39:57.179Z,23.49
2018-08-04T05:42:25.767Z,23.51
2018-08-04T05:44:54.110Z,23.52
2018-08-04T05:47:22.467Z,23.54
2018-08-04T05:49:50.820Z,23.60
2018-08-04T05:52:19.187Z,23.68
2018-08-04T05:54:47.526Z,23.77
2018-08-04T05:57:15.855Z,23.88
2018-08-04T05:59:44.192Z,23.93
2018-08-04T06:02:12.663Z,23.94
2018-08-04T06:04:41.042Z,23.98
2018-08-04T06:07:09.374Z,24.09
2018-08-04T06:09:37.749Z,24.21
2018-08-04T06:12:06.112Z,24.32
2018-08-04T06:14:34.470Z,24.36
2018-08-04T06:17:02.768Z,24.42
2018-08-04T06:19:31.140Z,24.33
2018-08-04T06:21:59.495Z,24.40
2018-08-04T06:24:27.829Z,24.50
2018-08-04T06:26:56.190Z,24.62
2018-08-04T06:29:24.509Z,24.74
2018-08-04T06:31:52.884Z,24.86
2018-08-04T06:34:21.209Z,25.00
2018-08-04T06:36:49.565Z,25.15
2018-08-04T06:39:17.886Z,25.25
2018-08-04T06:41:46.285Z,25.31
2018-08-04T06:44:14.821Z,25.28
2018-08-04T06:46:43.204Z,25.27
2018-08-04T06:49:11.631Z,25.20
2018-08-04T06:51:39.948Z,25.24
2018-08-04T06:54:08.336Z,25.42
2018-08-04T06:56:36.765Z,25.58
2018-08-04T06:59:05.100Z,25.71
2018-08-04T07:01:33.424Z,25.79
2018-08-04T07:04:01.801Z,25.73
2018-08-04T07:06:30.190Z,25.68
2018-08-04T07:08:58.573Z,25.75
2018-08-04T07:11:27.319Z,25.75
2018-08-04T07:13:55.656Z,25.81
2018-08-04T07:16:24.056Z,25.84
2018-08-04T07:18:52.487Z,25.88
2018-08-04T07:21:20.883Z,25.86
2018-08-04T07:23:49.281Z,25.80
2018-08-04T07:26:17.617Z,25.77
2018-08-04T07:28:46.029Z,25.78
2018-08-04T07:31:14.783Z,25.77
2018-08-04T07:33:43.135Z,25.77
2018-08-04T07:36:11.500Z,25.84
2018-08-04T07:38:39.863Z,25.86
2018-08-04T07:41:08.236Z,25.89
2018-08-04T07:43:36.697Z,25.95
2018-08-04T07:46:05.114Z,25.98
2018-08-04T07:48:33.432Z,26.05
2018-08-04T07:51:01.818Z,26.00
2018-08-04T07:53:30.263Z,25.93
2018-08-04T07:55:58.706Z,25.91
2018-08-04T07:58:27.020Z,25.93
2018-08-04T08:00:55.854Z,26.03
2018-08-04T08:03:24.218Z,26.19
2018-08-04T08:05:52.549Z,26.23
2018-08-04T08:08:20.927Z,26.22
2018-08-04T08:10:49.614Z,26.07
2018-08-04T08:13:17.897Z,25.92
2018-08-04T08:15:46.222Z,25.85
2018-08-04T08:18:14.560Z,25.83
2018-08-04T08:20:42.932Z,25.87
2018-08-04T08:23:11.332Z,25.97
2018-08-04T08:25:40.654Z,26.06
2018-08-04T08:28:09.042Z,26.14
2018-08-04T08:30:37.452Z,26.17
2018-08-04T08:33:05.879Z,26.18
2018-08-04T08:35:34.228Z,26.27
2018-08-04T08:38:02.599Z,26.32
2018-08-04T08:40:30.998Z,26.38
2018-08-04T08:42:59.363Z,26.38
2018-08-04T08:45:27.717Z,26.39
2018-08-04T08:47:56.257Z,26.46
2018-08-04T08:50:24.652Z,26.47
2018-08-04T08:52:52.988Z,26.48
2018-08-04T08:55:21.358Z,26.50
2018-08-04T08:57:49.693Z,26.59
2018-08-04T09:00:18.083Z,26.72
2018-08-04T09:02:46.459Z,26.78
2018-08-04T09:05:14.834Z,26.84
2018-08-04T09:07:43.202Z,26.92
2018-08-04T09:10:12.932Z,26.96
2018-08-04T09:12:41.821Z,27.00
2018-08-04T09:15:10.230Z,27.03
2018-08-04T09:17:38.598Z,27.11
2018-08-04T09:20:08.077Z,27.19
2018-08-04T09:22:36.486Z,27.26
2018-08-04T09:25:06.128Z,27.39
2018-08-04T09:27:34.882Z,27.46
2018-08-04T09:30:03.280Z,27.53
2018-08-04T09:32:31.636Z,27.57
2018-08-04T09:34:59.978Z,27.65
2018-08-04T09:37:28.326Z,27.68
2018-08-04T09:39:56.789Z,27.68
2018-08-04T09:42:25.221Z,27.71
2018-08-04T09:44:53.618Z,27.72
2018-08-04T09:47:21.923Z,27.81
2018-08-04T09:49:50.292Z,27.85
2018-08-04T09:52:18.732Z,27.88
2018-08-04T09:54:47.112Z,27.93
2018-08-04T09:57:15.466Z,27.98
2018-08-04T09:59:43.962Z,28.04
2018-08-04T10:02:13.458Z,28.09
2018-08-04T10:04:42.187Z,28.17
2018-08-04T10:07:10.680Z,28.24
2018-08-04T10:09:38.997Z,28.28
2018-08-04T10:12:07.359Z,28.35
2018-08-04T10:14:35.645Z,28.37
2018-08-04T10:17:04.052Z,28.35
2018-08-04T10:19:32.443Z,28.39
2018-08-04T10:22:00.931Z,28.44
2018-08-04T10:24:29.268Z,28.57
2018-08-04T10:26:57.623Z,28.59
2018-08-04T10:29:26.025Z,28.64
2018-08-04T10:31:54.429Z,28.74
2018-08-04T10:34:22.810Z,28.80
2018-08-04T10:36:51.168Z,28.83
2018-08-04T10:39:19.542Z,28.89
2018-08-04T10:41:47.907Z,28.88
2018-08-04T10:44:16.289Z,28.90
2018-08-04T10:46:44.687Z,28.97
2018-08-04T10:49:13.016Z,29.01
2018-08-04T10:51:41.461Z,29.04
2018-08-04T10:54:09.871Z,29.11
2018-08-04T10:56:38.467Z,29.10
2018-08-04T10:59:07.346Z,29.08
2018-08-04T11:01:35.717Z,29.06
2018-08-04T11:04:04.200Z,29.03
2018-08-04T11:06:32.628Z,29.09
2018-08-04T11:09:01.033Z,29.13
2018-08-04T11:11:29.395Z,29.24
2018-08-04T11:13:57.737Z,29.31
2018-08-04T11:16:26.130Z,29.27
2018-08-04T11:18:54.488Z,29.32
2018-08-04T11:21:22.877Z,29.41
2018-08-04T11:23:51.227Z,29.41
2018-08-04T11:26:19.597Z,29.47
2018-08-04T11:28:47.971Z,29.46
2018-08-04T11:31:16.374Z,29.46
2018-08-04T11:33:44.747Z,29.46
2018-08-04T11:36:13.129Z,29.53
2018-08-04T11:38:41.450Z,29.49
2018-08-04T11:41:09.811Z,29.55
2018-08-04T11:43:38.144Z,29.59
2018-08-04T11:46:06.572Z,29.63
2018-08-04T11:48:34.937Z,29.61
2018-08-04T11:51:03.376Z,29.63
2018-08-04T11:53:31.875Z,29.68
2018-08-04T11:56:00.219Z,29.83
2018-08-04T11:58:28.619Z,29.95
2018-08-04T12:00:57.269Z,29.99
2018-08-04T12:03:25.640Z,29.92
2018-08-04T12:05:54.003Z,29.92
2018-08-04T12:08:22.358Z,29.93
2018-08-04T12:10:50.717Z,30.01
2018-08-04T12:13:19.059Z,30.11
2018-08-04T12:15:47.393Z,30.22
2018-08-04T12:18:15.771Z,30.25
2018-08-04T12:20:44.341Z,30.29
2018-08-04T12:23:12.817Z,30.33
2018-08-04T12:25:41.252Z,30.35
2018-08-04T12:28:09.626Z,30.30
2018-08-04T12:30:38.036Z,30.29
2018-08-04T12:33:06.897Z,30.18
2018-08-04T12:35:35.283Z,30.14
2018-08-04T12:38:03.773Z,30.21
2018-08-04T12:40:32.117Z,30.16
2018-08-04T12:43:00.492Z,30.13
2018-08-04T12:45:28.861Z,30.13
2018-08-04T12:47:57.196Z,30.17
2018-08-04T12:50:25.632Z,30.20
2018-08-04T12:52:54.037Z,30.32
2018-08-04T12:55:22.655Z,30.45
2018-08-04T12:57:51.018Z,30.48
2018-08-04T13:00:19.368Z,30.50
2018-08-04T13:02:47.731Z,30.51
2018-08-04T13:05:16.070Z,30.46
2018-08-04T13:07:44.385Z,30.40
2018-08-04T13:10:12.792Z,30.39
2018-08-04T13:12:41.115Z,30.43
2018-08-04T13:15:10.112Z,30.42
2018-08-04T13:17:38.444Z,30.45
2018-08-04T13:20:06.892Z,30.49
2018-08-04T13:22:35.269Z,30.50
2018-08-04T13:25:03.832Z,30.52
2018-08-04T13:27:32.209Z,30.60
2018-08-04T13:30:00.794Z,30.63
2018-08-04T13:32:29.105Z,30.58
2018-08-04T13:34:57.456Z,30.53
2018-08-04T13:37:25.804Z,30.63
2018-08-04T13:39:54.354Z,30.73
2018-08-04T13:42:22.813Z,30.83
2018-08-04T13:44:51.145Z,30.81
2018-08-04T13:47:19.492Z,30.82
2018-08-04T13:49:47.797Z,30.83
2018-08-04T13:52:16.202Z,30.88
2018-08-04T13:54:44.555Z,30.96
2018-08-04T13:57:12.989Z,31.05
2018-08-04T13:59:41.363Z,31.02
2018-08-04T14:02:09.812Z,30.99
2018-08-04T14:04:38.344Z,30.99
2018-08-04T14:07:06.704Z,30.97
2018-08-04T14:09:35.290Z,31.02
2018-08-04T14:12:03.707Z,31.16
2018-08-04T14:14:32.061Z,31.13
2018-08-04T14:17:00.548Z,30.89
2018-08-04T14:19:28.955Z,30.68
2018-08-04T14:21:57.317Z,30.66
2018-08-04T14:24:25.713Z,30.78
2018-08-04T14:26:54.394Z,30.90
2018-08-04T14:29:22.775Z,30.88
2018-08-04T14:31:51.171Z,30.99
2018-08-04T14:34:19.480Z,31.18
2018-08-04T14:36:48.060Z,31.20
2018-08-04T14:39:16.432Z,31.23
2018-08-04T14:41:44.845Z,31.30
2018-08-04T14:44:13.235Z,31.43
2018-08-04T14:46:41.633Z,31.45
2018-08-04T14:49:10.003Z,31.44
2018-08-04T14:51:38.331Z,31.37
2018-08-04T14:54:06.883Z,31.22
2018-08-04T14:56:35.311Z,31.07
2018-08-04T14:59:03.711Z,30.99
2018-08-04T15:01:32.101Z,30.95
2018-08-04T15:04:00.475Z,30.88
2018-08-04T15:06:28.847Z,30.76
2018-08-04T15:08:57.182Z,30.70
2018-08-04T15:11:25.608Z,30.73
2018-08-04T15:13:53.967Z,30.83
2018-08-04T15:16:22.347Z,30.90
2018-08-04T15:18:50.671Z,31.02
2018-08-04T15:21:19.048Z,31.17
2018-08-04T15:23:47.402Z,31.20
2018-08-04T15:26:15.746Z,31.05
2018-08-04T15:28:44.138Z,30.93
2018-08-04T15:31:12.495Z,30.88
2018-08-04T15:33:40.850Z,30.83
2018-08-04T15:36:09.249Z,30.76
2018-08-04T15:38:37.570Z,30.73
2018-08-04T15:41:05.903Z,30.69
2018-08-04T15:43:34.289Z,30.75
2018-08-04T15:46:02.669Z,30.82
2018-08-04T15:48:31.043Z,30.81
2018-08-04T15:50:59.386Z,30.83
2018-08-04T15:53:27.744Z,30.90
2018-08-04T15:55:56.543Z,30.94
2018-08-04T15:58:24.994Z,30.90
2018-08-04T16:00:53.322Z,30.88
2018-08-04T16:03:22.042Z,30.84
2018-08-04T16:05:50.457Z,30.78
2018-08-04T16:08:18.893Z,30.78
2018-08-04T16:10:47.272Z,30.78
2018-08-04T16:13:15.635Z,30.74
2018-08-04T16:15:44.008Z,30.74
2018-08-04T16:18:12.686Z,30.81
2018-08-04T16:20:41.058Z,30.83
2018-08-04T16:23:09.405Z,30.90
2018-08-04T16:25:37.798Z,30.95
2018-08-04T16:28:06.182Z,30.95
2018-08-04T16:30:34.557Z,30.95
2018-08-04T16:33:02.927Z,30.93
2018-08-04T16:35:31.293Z,30.91
2018-08-04T16:37:59.680Z,30.78
2018-08-04T16:40:28.069Z,30.69
2018-08-04T16:42:57.240Z,30.68
2018-08-04T16:45:25.932Z,30.61
2018-08-04T16:47:54.268Z,30.59
2018-08-04T16:50:22.581Z,30.59
2018-08-04T16:52:50.970Z,30.54
2018-08-04T16:55:19.324Z,30.46
2018-08-04T16:57:47.713Z,30.40
2018-08-04T17:00:16.156Z,30.40
2018-08-04T17:02:44.505Z,30.37
2018-08-04T17:05:12.855Z,30.37
2018-08-04T17:07:41.237Z,30.34
2018-08-04T17:10:09.556Z,30.29
2018-08-04T17:12:37.860Z,30.20
2018-08-04T17:15:06.401Z,30.12
2018-08-04T17:17:34.729Z,30.04
2018-08-04T17:20:03.178Z,29.99
2018-08-04T17:22:31.543Z,29.91
2018-08-04T17:24:59.894Z,29.88
2018-08-04T17:27:28.226Z,29.85
2018-08-04T17:29:56.589Z,29.83
2018-08-04T17:32:24.896Z,29.82
2018-08-04T17:34:53.246Z,29.76
2018-08-04T17:37:21.718Z,29.69
2018-08-04T17:39:50.000Z,29.64
2018-08-04T17:42:18.410Z,29.55
2018-08-04T17:44:46.805Z,29.49
2018-08-04T17:47:15.196Z,29.39
2018-08-04T17:49:43.540Z,29.33
2018-08-04T17:52:11.860Z,29.28
2018-08-04T17:54:40.334Z,29.23
2018-08-04T17:57:08.696Z,29.19
2018-08-04T17:59:37.055Z,29.13
2018-08-04T18:02:05.462Z,29.05
2018-08-04T18:04:33.841Z,28.98
2018-08-04T18:07:02.222Z,28.91
2018-08-04T18:09:30.551Z,28.86
2018-08-04T18:11:58.955Z,28.82
2018-08-04T18:14:27.305Z,28.75
2018-08-04T18:16:55.773Z,28.72
2018-08-04T18:19:24.088Z,28.69
2018-08-04T18:21:52.530Z,28.61
2018-08-04T18:24:20.910Z,28.57
2018-08-04T18:26:49.291Z,28.51
2018-08-04T18:29:17.692Z,28.46
2018-08-04T18:31:46.097Z,28.41
2018-08-04T18:34:14.461Z,28.34
2018-08-04T18:36:42.787Z,28.23
2018-08-04T18:39:11.291Z,28.20
2018-08-04T18:41:39.858Z,28.12
2018-08-04T18:44:08.406Z,28.06
2018-08-04T18:46:36.789Z,27.98
2018-08-04T18:49:05.152Z,27.94
2018-08-04T18:51:33.539Z,27.89
2018-08-04T18:54:01.926Z,27.85
2018-08-04T18:56:30.942Z,27.80
2018-08-04T18:58:59.300Z,27.75
2018-08-04T19:01:27.712Z,27.72
2018-08-04T19:03:56.096Z,27.71
2018-08-04T19:06:24.429Z,27.69
2018-08-04T19:08:52.755Z,27.66
2018-08-04T19:11:21.126Z,27.64
2018-08-04T19:13:49.463Z,27.59
2018-08-04T19:16:17.804Z,27.55
2018-08-04T19:18:46.179Z,27.50
2018-08-04T19:21:14.569Z,27.46
2018-08-04T19:23:42.949Z,27.39
2018-08-04T19:26:11.327Z,27.36
2018-08-04T19:28:39.738Z,27.31
2018-08-04T19:31:08.068Z,27.27
2018-08-04T19:33:36.458Z,27.23
2018-08-04T19:36:04.859Z,27.17
2018-08-04T19:38:33.357Z,27.13
2018-08-04T19:41:01.856Z,27.08
2018-08-04T19:43:30.197Z,27.04
2018-08-04T19:45:58.585Z,26.98
2018-08-04T19:48:26.956Z,26.92
2018-08-04T19:50:55.352Z,26.85
2018-08-04T19:53:23.692Z,26.80
2018-08-04T19:55:52.005Z,26.70
2018-08-04T19:58:20.385Z,26.64
2018-08-04T20:00:48.730Z,26.55
2018-08-04T20:03:17.123Z,26.50
2018-08-04T20:05:45.481Z,26.46
2018-08-04T20:08:14.108Z,26.42
2018-08-04T20:10:42.489Z,26.37
2018-08-04T20:13:10.887Z,26.34
2018-08-04T20:15:39.243Z,26.27
2018-08-04T20:18:07.767Z,26.26
2018-08-04T20:20:36.143Z,26.25
2018-08-04T20:23:04.621Z,26.21
2018-08-04T20:25:33.216Z,26.16
2018-08-04T20:28:01.771Z,26.12
2018-08-04T20:30:30.181Z,26.13
2018-08-04T20:32:58.616Z,26.09
2018-08-04T20:35:26.981Z,26.08
2018-08-04T20:37:55.315Z,26.06
2018-08-04T20:40:23.629Z,26.04
2018-08-04T20:42:52.000Z,25.99
2018-08-04T20:45:20.494Z,25.98
2018-08-04T20:47:48.821Z,25.92
2018-08-04T20:50:17.158Z,25.86
2018-08-04T20:52:45.537Z,25.80
2018-08-04T20:55:13.853Z,25.73
2018-08-04T20:57:42.287Z,25.71
2018-08-04T21:00:10.653Z,25.71
2018-08-04T21:02:39.044Z,25.62
2018-08-04T21:05:07.388Z,25.58
2018-08-04T21:07:35.764Z,25.53
2018-08-04T21:10:04.156Z,25.48
2018-08-04T21:12:32.572Z,25.41
2018-08-04T21:15:00.903Z,25.32
2018-08-04T21:17:29.328Z,25.20
2018-08-04T21:19:57.645Z,25.13
2018-08-04T21:22:26.268Z,25.10
2018-08-04T21:24:54.978Z,25.06
2018-08-04T21:27:23.358Z,24.99
2018-08-04T21:29:51.699Z,24.94
2018-08-04T21:32:20.063Z,24.94
2018-08-04T21:34:48.513Z,24.94
2018-08-04T21:37:16.848Z,24.90
2018-08-04T21:39:45.221Z,24.83
2018-08-04T21:42:13.930Z,24.73
2018-08-04T21:44:42.327Z,24.65
2018-08-04T21:47:10.646Z,24.58
2018-08-04T21:49:39.005Z,24.49
2018-08-04T21:52:07.506Z,24.46
2018-08-04T21:54:35.928Z,24.44
2018-08-04T21:57:04.260Z,24.42
2018-08-04T21:59:32.649Z,24.38
2018-08-04T22:02:01.135Z,24.33
2018-08-04T22:04:29.392Z,24.32
2018-08-04T22:08:07.782Z,24.32
2018-08-04T22:10:36.120Z,24.36
2018-08-04T22:13:04.622Z,24.35
2018-08-04T22:15:33.024Z,24.30
2018-08-04T22:18:01.556Z,24.23
2018-08-04T22:20:30.387Z,24.18
2018-08-04T22:22:58.888Z,24.14
2018-08-04T22:25:28.568Z,24.15
2018-08-04T22:27:57.377Z,24.09
2018-08-04T22:30:26.166Z,24.06
2018-08-04T22:32:54.567Z,24.07
2018-08-04T22:35:23.164Z,24.07
2018-08-04T22:37:51.519Z,24.00
2018-08-04T22:40:20.719Z,23.95
2018-08-04T22:42:49.132Z,23.95
2018-08-04T22:46:24.146Z,23.96
2018-08-04T22:48:53.639Z,23.94
2018-08-04T22:51:28.171Z,23.88
2018-08-04T22:53:56.936Z,23.87
2018-08-04T22:56:25.638Z,23.84
2018-08-04T22:58:55.023Z,23.83
2018-08-04T23:01:23.355Z,23.83
2018-08-04T23:03:51.721Z,23.83
2018-08-04T23:06:20.037Z,23.82
2018-08-04T23:08:48.399Z,23.79
2018-08-04T23:11:16.769Z,23.70
2018-08-04T23:13:45.081Z,23.60
2018-08-04T23:16:13.475Z,23.47
2018-08-04T23:18:41.797Z,23.42
2018-08-04T23:21:10.147Z,23.42
2018-08-04T23:23:38.444Z,23.41
2018-08-04T23:26:06.972Z,23.42
2018-08-04T23:28:35.279Z,23.39
2018-08-04T23:31:03.660Z,23.37
2018-08-04T23:33:32.039Z,23.31
2018-08-04T23:36:00.436Z,23.30
2018-08-04T23:38:28.790Z,23.32
2018-08-04T23:40:57.136Z,23.34
2018-08-04T23:43:25.516Z,23.32
2018-08-04T23:45:53.950Z,23.26
2018-08-04T23:48:22.294Z,23.14
2018-08-04T23:50:50.639Z,23.06
2018-08-04T23:53:19.026Z,23.05
2018-08-04T23:55:47.536Z,23.07
2018-08-04T23:58:15.889Z,23.09
